sensor_id;sensor_type;location;lat;lon;timestamp;pressure;altitude;pressure_sealevel;temperature;humidity
13974;BME280;7060;43.770;4.008;2023-06-01T00:00:51;101117.84;;;16.86;70.38
13974;BME280;7060;43.770;4.008;2023-06-01T00:03:23;101114.66;;;16.82;70.40
13974;BME280;7060;43.770;4.008;2023-06-01T00:05:52;101110.28;;;16.81;70.46
13974;BME280;7060;43.770;4.008;2023-06-01T00:08:22;101110.47;;;16.80;70.56
13974;BME280;7060;43.770;4.008;2023-06-01T00:10:50;101107.94;;;16.78;70.75
13974;BME280;7060;43.770;4.008;2023-06-01T00:13:20;101106.47;;;16.76;70.98
13974;BME280;7060;43.770;4.008;2023-06-01T00:15:48;101102.59;;;16.70;70.79
13974;BME280;7060;43.770;4.008;2023-06-01T00:18:18;101101.25;;;16.66;70.99
13974;BME280;7060;43.770;4.008;2023-06-01T00:20:46;101110.03;;;16.68;71.18
13974;BME280;7060;43.770;4.008;2023-06-01T00:23:15;101093.16;;;16.66;71.05
13974;BME280;7060;43.770;4.008;2023-06-01T00:25:48;101079.31;;;16.61;71.11
13974;BME280;7060;43.770;4.008;2023-06-01T00:28:17;101094.31;;;16.72;71.26
13974;BME280;7060;43.770;4.008;2023-06-01T00:30:45;101092.13;;;16.75;71.27
13974;BME280;7060;43.770;4.008;2023-06-01T00:33:14;101089.03;;;16.78;71.14
13974;BME280;7060;43.770;4.008;2023-06-01T00:35:42;101079.91;;;16.79;71.13
13974;BME280;7060;43.770;4.008;2023-06-01T00:38:11;101082.25;;;16.82;71.09
13974;BME280;7060;43.770;4.008;2023-06-01T00:40:40;101085.44;;;16.86;71.00
13974;BME280;7060;43.770;4.008;2023-06-01T00:43:13;101086.59;;;16.91;70.49
13974;BME280;7060;43.770;4.008;2023-06-01T00:45:42;101087.78;;;16.89;70.91
13974;BME280;7060;43.770;4.008;2023-06-01T00:48:11;101080.53;;;16.89;70.79
13974;BME280;7060;43.770;4.008;2023-06-01T00:50:39;101083.41;;;16.88;70.72
13974;BME280;7060;43.770;4.008;2023-06-01T00:53:11;101079.69;;;16.89;70.65
13974;BME280;7060;43.770;4.008;2023-06-01T00:55:43;101068.47;;;16.77;71.16
13974;BME280;7060;43.770;4.008;2023-06-01T00:58:13;101089.00;;;16.86;70.76
13974;BME280;7060;43.770;4.008;2023-06-01T01:00:42;101078.53;;;16.83;71.02
13974;BME280;7060;43.770;4.008;2023-06-01T01:03:15;101076.19;;;16.80;71.29
13974;BME280;7060;43.770;4.008;2023-06-01T01:05:44;101079.06;;;16.79;71.42
13974;BME280;7060;43.770;4.008;2023-06-01T01:08:21;101076.03;;;16.82;71.48
13974;BME280;7060;43.770;4.008;2023-06-01T01:10:57;101077.88;;;16.81;71.40
13974;BME280;7060;43.770;4.008;2023-06-01T01:13:35;101075.00;;;16.83;71.33
13974;BME280;7060;43.770;4.008;2023-06-01T01:16:11;101072.97;;;16.85;71.20
13974;BME280;7060;43.770;4.008;2023-06-01T01:18:48;101073.44;;;16.88;70.97
13974;BME280;7060;43.770;4.008;2023-06-01T01:21:25;101073.94;;;16.92;70.71
13974;BME280;7060;43.770;4.008;2023-06-01T01:24:22;101069.72;;;16.89;70.14
13974;BME280;7060;43.770;4.008;2023-06-01T01:27:04;101020.09;;;16.59;70.15
13974;BME280;7060;43.770;4.008;2023-06-01T01:29:37;101070.56;;;16.90;70.42
13974;BME280;7060;43.770;4.008;2023-06-01T01:32:06;101068.91;;;16.89;70.47
13974;BME280;7060;43.770;4.008;2023-06-01T01:34:37;101064.34;;;16.89;70.13
13974;BME280;7060;43.770;4.008;2023-06-01T01:37:07;101066.03;;;16.90;69.85
13974;BME280;7060;43.770;4.008;2023-06-01T01:39:35;101060.91;;;16.96;69.60
13974;BME280;7060;43.770;4.008;2023-06-01T01:42:05;101065.66;;;16.93;69.41
13974;BME280;7060;43.770;4.008;2023-06-01T01:44:33;101061.47;;;16.91;69.54
13974;BME280;7060;43.770;4.008;2023-06-01T01:47:08;101055.88;;;16.92;69.23
13974;BME280;7060;43.770;4.008;2023-06-01T01:49:43;101054.19;;;16.91;69.20
13974;BME280;7060;43.770;4.008;2023-06-01T01:52:16;101054.38;;;16.90;68.96
13974;BME280;7060;43.770;4.008;2023-06-01T01:54:47;101052.88;;;16.87;69.28
13974;BME280;7060;43.770;4.008;2023-06-01T01:57:18;101055.25;;;16.82;69.21
13974;BME280;7060;43.770;4.008;2023-06-01T01:59:47;101052.28;;;16.77;69.79
13974;BME280;7060;43.770;4.008;2023-06-01T02:02:17;101053.47;;;16.75;69.65
13974;BME280;7060;43.770;4.008;2023-06-01T02:04:46;101046.91;;;16.69;69.99
13974;BME280;7060;43.770;4.008;2023-06-01T02:07:14;101046.44;;;16.66;69.95
13974;BME280;7060;43.770;4.008;2023-06-01T02:09:43;101047.44;;;16.65;70.31
13974;BME280;7060;43.770;4.008;2023-06-01T02:12:12;101042.19;;;16.63;70.29
13974;BME280;7060;43.770;4.008;2023-06-01T02:14:41;101041.19;;;16.64;70.40
13974;BME280;7060;43.770;4.008;2023-06-01T02:17:09;101041.19;;;16.64;70.28
13974;BME280;7060;43.770;4.008;2023-06-01T02:19:40;101041.53;;;16.69;70.09
13974;BME280;7060;43.770;4.008;2023-06-01T02:22:09;101025.34;;;16.61;70.15
13974;BME280;7060;43.770;4.008;2023-06-01T02:24:38;101041.16;;;16.72;69.96
13974;BME280;7060;43.770;4.008;2023-06-01T02:27:07;101043.69;;;16.74;70.00
13974;BME280;7060;43.770;4.008;2023-06-01T02:29:35;101031.03;;;16.74;69.81
13974;BME280;7060;43.770;4.008;2023-06-01T02:32:04;101033.56;;;16.76;69.92
13974;BME280;7060;43.770;4.008;2023-06-01T02:34:33;101035.69;;;16.80;69.88
13974;BME280;7060;43.770;4.008;2023-06-01T02:37:05;101030.97;;;16.82;69.55
13974;BME280;7060;43.770;4.008;2023-06-01T02:39:34;101030.97;;;16.82;69.64
13974;BME280;7060;43.770;4.008;2023-06-01T02:42:04;101030.97;;;16.82;69.65
13974;BME280;7060;43.770;4.008;2023-06-01T02:44:33;101036.72;;;16.79;69.81
13974;BME280;7060;43.770;4.008;2023-06-01T02:47:01;101026.75;;;16.80;69.89
13974;BME280;7060;43.770;4.008;2023-06-01T02:49:30;101029.44;;;16.80;69.79
13974;BME280;7060;43.770;4.008;2023-06-01T02:51:59;101028.81;;;16.78;70.04
13974;BME280;7060;43.770;4.008;2023-06-01T02:54:29;101025.91;;;16.79;69.92
13974;BME280;7060;43.770;4.008;2023-06-01T02:57:04;101027.13;;;16.77;69.92
13974;BME280;7060;43.770;4.008;2023-06-01T02:59:38;101027.13;;;16.77;69.76
13974;BME280;7060;43.770;4.008;2023-06-01T03:02:06;101020.41;;;16.73;69.61
13974;BME280;7060;43.770;4.008;2023-06-01T03:04:35;101035.25;;;16.77;69.82
13974;BME280;7060;43.770;4.008;2023-06-01T03:07:03;101024.63;;;16.75;69.86
13974;BME280;7060;43.770;4.008;2023-06-01T03:09:36;101032.22;;;16.72;70.09
13974;BME280;7060;43.770;4.008;2023-06-01T03:12:37;101029.06;;;16.60;70.43
13974;BME280;7060;43.770;4.008;2023-06-01T03:15:06;101035.47;;;16.59;70.46
13974;BME280;7060;43.770;4.008;2023-06-01T03:17:35;101034.78;;;16.57;70.57
13974;BME280;7060;43.770;4.008;2023-06-01T03:20:05;101029.41;;;16.57;70.55
13974;BME280;7060;43.770;4.008;2023-06-01T03:22:43;101035.31;;;16.52;70.59
13974;BME280;7060;43.770;4.008;2023-06-01T03:25:13;101034.03;;;16.48;70.65
13974;BME280;7060;43.770;4.008;2023-06-01T03:27:43;101040.97;;;16.43;71.30
13974;BME280;7060;43.770;4.008;2023-06-01T03:30:13;101040.97;;;16.43;71.07
13974;BME280;7060;43.770;4.008;2023-06-01T03:32:43;101046.19;;;16.44;71.01
13974;BME280;7060;43.770;4.008;2023-06-01T03:35:12;101043.84;;;16.41;71.08
13974;BME280;7060;43.770;4.008;2023-06-01T03:37:44;101031.38;;;16.40;71.10
13974;BME280;7060;43.770;4.008;2023-06-01T03:40:18;101029.19;;;16.36;71.41
13974;BME280;7060;43.770;4.008;2023-06-01T03:42:47;101029.34;;;16.34;71.15
13974;BME280;7060;43.770;4.008;2023-06-01T03:45:16;101033.75;;;16.35;71.07
13974;BME280;7060;43.770;4.008;2023-06-01T03:47:46;101037.09;;;16.37;71.11
13974;BME280;7060;43.770;4.008;2023-06-01T03:50:14;101035.91;;;16.40;70.93
13974;BME280;7060;43.770;4.008;2023-06-01T03:52:44;101034.72;;;16.42;70.85
13974;BME280;7060;43.770;4.008;2023-06-01T03:55:13;101037.59;;;16.41;71.01
13974;BME280;7060;43.770;4.008;2023-06-01T03:58:03;101034.75;;;16.34;70.79
13974;BME280;7060;43.770;4.008;2023-06-01T04:00:33;101043.72;;;16.26;70.77
13974;BME280;7060;43.770;4.008;2023-06-01T04:03:03;101040.06;;;16.19;71.36
13974;BME280;7060;43.770;4.008;2023-06-01T04:05:34;101028.63;;;16.09;71.66
13974;BME280;7060;43.770;4.008;2023-06-01T04:08:04;101033.00;;;16.18;71.74
13974;BME280;7060;43.770;4.008;2023-06-01T04:10:33;101042.41;;;16.22;71.57
13974;BME280;7060;43.770;4.008;2023-06-01T04:13:03;101024.00;;;16.26;71.42
13974;BME280;7060;43.770;4.008;2023-06-01T04:15:32;101035.09;;;16.31;71.21
13974;BME280;7060;43.770;4.008;2023-06-01T04:18:01;101022.28;;;16.33;71.10
13974;BME280;7060;43.770;4.008;2023-06-01T04:20:48;101031.03;;;16.35;71.14
13974;BME280;7060;43.770;4.008;2023-06-01T04:23:17;101027.69;;;16.33;71.23
13974;BME280;7060;43.770;4.008;2023-06-01T04:25:46;101030.19;;;16.35;71.24
13974;BME280;7060;43.770;4.008;2023-06-01T04:28:20;101028.53;;;16.34;71.16
13974;BME280;7060;43.770;4.008;2023-06-01T04:30:52;101032.56;;;16.38;71.13
13974;BME280;7060;43.770;4.008;2023-06-01T04:33:22;101038.09;;;16.44;70.89
13974;BME280;7060;43.770;4.008;2023-06-01T04:35:52;101036.91;;;16.47;70.68
13974;BME280;7060;43.770;4.008;2023-06-01T04:38:24;101037.00;;;16.53;70.65
13974;BME280;7060;43.770;4.008;2023-06-01T04:40:54;101039.66;;;16.62;70.41
13974;BME280;7060;43.770;4.008;2023-06-01T04:43:23;101045.72;;;16.72;70.11
13974;BME280;7060;43.770;4.008;2023-06-01T04:45:52;101052.47;;;16.76;69.80
13974;BME280;7060;43.770;4.008;2023-06-01T04:48:20;101049.84;;;16.82;69.71
13974;BME280;7060;43.770;4.008;2023-06-01T04:50:56;101047.66;;;16.86;69.54
13974;BME280;7060;43.770;4.008;2023-06-01T04:53:26;101049.63;;;16.92;69.50
13974;BME280;7060;43.770;4.008;2023-06-01T04:55:54;101049.47;;;16.93;69.33
13974;BME280;7060;43.770;4.008;2023-06-01T04:58:28;101053.66;;;16.96;69.10
13974;BME280;7060;43.770;4.008;2023-06-01T05:00:56;101046.72;;;17.02;69.17
13974;BME280;7060;43.770;4.008;2023-06-01T05:03:27;101048.00;;;17.06;68.96
13974;BME280;7060;43.770;4.008;2023-06-01T05:05:56;101049.31;;;17.10;68.81
13974;BME280;7060;43.770;4.008;2023-06-01T05:08:25;101044.59;;;17.12;68.48
13974;BME280;7060;43.770;4.008;2023-06-01T05:10:53;101048.44;;;17.17;68.35
13974;BME280;7060;43.770;4.008;2023-06-01T05:13:22;101040.63;;;17.22;68.43
13974;BME280;7060;43.770;4.008;2023-06-01T05:15:51;101041.81;;;17.20;68.39
13974;BME280;7060;43.770;4.008;2023-06-01T05:18:20;101048.28;;;17.34;68.27
13974;BME280;7060;43.770;4.008;2023-06-01T05:20:50;101053.13;;;17.38;68.40
13974;BME280;7060;43.770;4.008;2023-06-01T05:23:19;101057.47;;;17.47;68.41
13974;BME280;7060;43.770;4.008;2023-06-01T05:25:47;101059.63;;;17.52;68.12
13974;BME280;7060;43.770;4.008;2023-06-01T05:28:16;101047.38;;;17.41;67.93
13974;BME280;7060;43.770;4.008;2023-06-01T05:30:45;101068.31;;;17.62;68.20
13974;BME280;7060;43.770;4.008;2023-06-01T05:33:15;101057.53;;;17.77;67.44
13974;BME280;7060;43.770;4.008;2023-06-01T05:35:43;101069.56;;;17.89;67.35
13974;BME280;7060;43.770;4.008;2023-06-01T05:38:16;101043.09;;;17.84;67.22
13974;BME280;7060;43.770;4.008;2023-06-01T05:40:45;101063.31;;;18.18;66.46
13974;BME280;7060;43.770;4.008;2023-06-01T05:43:14;101069.03;;;18.52;65.61
13974;BME280;7060;43.770;4.008;2023-06-01T05:45:43;101071.28;;;18.85;65.05
13974;BME280;7060;43.770;4.008;2023-06-01T05:48:11;101068.44;;;19.36;64.65
13974;BME280;7060;43.770;4.008;2023-06-01T05:50:47;101058.88;;;19.89;62.83
13974;BME280;7060;43.770;4.008;2023-06-01T05:53:16;101065.66;;;20.41;60.54
13974;BME280;7060;43.770;4.008;2023-06-01T05:55:45;101059.09;;;20.76;58.52
13974;BME280;7060;43.770;4.008;2023-06-01T05:58:14;101067.78;;;21.13;57.21
13974;BME280;7060;43.770;4.008;2023-06-01T06:00:42;101064.25;;;21.52;56.98
13974;BME280;7060;43.770;4.008;2023-06-01T06:03:10;101059.22;;;21.95;56.54
13974;BME280;7060;43.770;4.008;2023-06-01T06:05:40;101067.72;;;22.25;54.64
13974;BME280;7060;43.770;4.008;2023-06-01T06:08:10;101060.06;;;22.60;54.36
13974;BME280;7060;43.770;4.008;2023-06-01T06:10:38;101067.03;;;22.87;51.89
13974;BME280;7060;43.770;4.008;2023-06-01T06:13:07;101066.81;;;23.27;50.44
13974;BME280;7060;43.770;4.008;2023-06-01T06:15:35;101073.78;;;23.48;49.62
13974;BME280;7060;43.770;4.008;2023-06-01T06:18:04;101070.03;;;23.67;49.62
13974;BME280;7060;43.770;4.008;2023-06-01T06:20:33;101064.88;;;23.84;48.65
13974;BME280;7060;43.770;4.008;2023-06-01T06:23:01;101064.28;;;24.00;48.56
13974;BME280;7060;43.770;4.008;2023-06-01T06:25:32;101076.47;;;24.41;47.37
13974;BME280;7060;43.770;4.008;2023-06-01T06:28:00;101072.25;;;24.56;46.39
13974;BME280;7060;43.770;4.008;2023-06-01T06:30:30;101077.03;;;24.61;45.76
13974;BME280;7060;43.770;4.008;2023-06-01T06:32:58;101079.16;;;24.77;45.06
13974;BME280;7060;43.770;4.008;2023-06-01T06:35:27;101077.31;;;24.89;45.18
13974;BME280;7060;43.770;4.008;2023-06-01T06:37:55;101076.50;;;25.01;44.82
13974;BME280;7060;43.770;4.008;2023-06-01T06:40:24;101078.72;;;25.22;44.85
13974;BME280;7060;43.770;4.008;2023-06-01T06:42:54;101077.50;;;25.48;43.89
13974;BME280;7060;43.770;4.008;2023-06-01T06:45:22;101077.88;;;25.63;43.40
13974;BME280;7060;43.770;4.008;2023-06-01T06:47:51;101080.13;;;25.54;42.82
13974;BME280;7060;43.770;4.008;2023-06-01T06:50:19;101076.50;;;25.30;43.17
13974;BME280;7060;43.770;4.008;2023-06-01T06:52:48;101083.41;;;25.03;43.95
13974;BME280;7060;43.770;4.008;2023-06-01T06:55:17;101081.06;;;24.77;43.58
13974;BME280;7060;43.770;4.008;2023-06-01T06:57:45;101085.38;;;24.48;44.63
13974;BME280;7060;43.770;4.008;2023-06-01T07:00:16;101087.97;;;24.24;45.85
13974;BME280;7060;43.770;4.008;2023-06-01T07:02:46;101074.16;;;24.19;45.73
13974;BME280;7060;43.770;4.008;2023-06-01T07:05:15;101075.84;;;24.20;45.81
13974;BME280;7060;43.770;4.008;2023-06-01T07:07:43;101079.56;;;24.26;45.95
13974;BME280;7060;43.770;4.008;2023-06-01T07:10:12;101086.53;;;24.58;45.89
13974;BME280;7060;43.770;4.008;2023-06-01T07:12:41;101088.72;;;24.86;45.08
13974;BME280;7060;43.770;4.008;2023-06-01T07:15:10;101089.78;;;24.85;44.55
13974;BME280;7060;43.770;4.008;2023-06-01T07:17:40;101077.22;;;24.96;44.18
13974;BME280;7060;43.770;4.008;2023-06-01T07:20:09;101091.06;;;25.13;44.31
13974;BME280;7060;43.770;4.008;2023-06-01T07:22:38;101082.06;;;25.24;43.76
13974;BME280;7060;43.770;4.008;2023-06-01T07:25:08;101082.41;;;25.16;44.31
13974;BME280;7060;43.770;4.008;2023-06-01T07:27:37;101079.66;;;25.46;43.98
13974;BME280;7060;43.770;4.008;2023-06-01T07:30:11;101085.50;;;25.49;43.91
13974;BME280;7060;43.770;4.008;2023-06-01T07:32:41;101085.03;;;25.76;44.36
13974;BME280;7060;43.770;4.008;2023-06-01T07:35:10;101079.06;;;25.90;43.48
13974;BME280;7060;43.770;4.008;2023-06-01T07:37:39;101076.38;;;26.02;42.52
13974;BME280;7060;43.770;4.008;2023-06-01T07:40:08;101076.91;;;26.27;42.65
13974;BME280;7060;43.770;4.008;2023-06-01T07:42:38;101082.59;;;26.38;41.96
13974;BME280;7060;43.770;4.008;2023-06-01T07:45:08;101067.56;;;26.52;42.01
13974;BME280;7060;43.770;4.008;2023-06-01T07:47:36;101083.16;;;26.63;42.17
13974;BME280;7060;43.770;4.008;2023-06-01T07:50:08;101077.63;;;26.75;40.55
13974;BME280;7060;43.770;4.008;2023-06-01T07:52:37;101088.09;;;26.61;40.66
13974;BME280;7060;43.770;4.008;2023-06-01T07:55:06;101079.03;;;26.37;40.53
13974;BME280;7060;43.770;4.008;2023-06-01T07:57:36;101088.47;;;26.29;42.14
13974;BME280;7060;43.770;4.008;2023-06-01T08:00:05;101079.63;;;26.39;42.72
13974;BME280;7060;43.770;4.008;2023-06-01T08:02:38;101083.41;;;26.50;41.35
13974;BME280;7060;43.770;4.008;2023-06-01T08:05:09;101086.41;;;26.60;41.67
13974;BME280;7060;43.770;4.008;2023-06-01T08:07:38;101081.53;;;26.62;41.55
13974;BME280;7060;43.770;4.008;2023-06-01T08:10:07;101087.66;;;26.69;41.51
13974;BME280;7060;43.770;4.008;2023-06-01T08:12:36;101081.94;;;26.71;42.73
13974;BME280;7060;43.770;4.008;2023-06-01T08:15:05;101081.66;;;26.84;41.54
13974;BME280;7060;43.770;4.008;2023-06-01T08:17:34;101076.94;;;26.96;41.69
13974;BME280;7060;43.770;4.008;2023-06-01T08:20:03;101081.22;;;27.04;42.44
13974;BME280;7060;43.770;4.008;2023-06-01T08:22:38;101046.59;;;26.86;41.59
13974;BME280;7060;43.770;4.008;2023-06-01T08:25:07;101075.00;;;27.08;40.95
13974;BME280;7060;43.770;4.008;2023-06-01T08:27:36;101073.06;;;27.09;41.67
13974;BME280;7060;43.770;4.008;2023-06-01T08:30:06;101071.47;;;26.96;42.67
13974;BME280;7060;43.770;4.008;2023-06-01T08:32:35;101068.19;;;26.82;42.30
13974;BME280;7060;43.770;4.008;2023-06-01T08:35:05;101074.50;;;26.83;42.18
13974;BME280;7060;43.770;4.008;2023-06-01T08:37:33;101057.47;;;26.81;42.13
13974;BME280;7060;43.770;4.008;2023-06-01T08:40:04;101065.38;;;26.94;42.43
13974;BME280;7060;43.770;4.008;2023-06-01T08:42:40;101058.47;;;26.91;41.05
13974;BME280;7060;43.770;4.008;2023-06-01T08:45:12;101069.38;;;26.86;41.78
13974;BME280;7060;43.770;4.008;2023-06-01T08:47:42;101066.38;;;26.88;42.20
13974;BME280;7060;43.770;4.008;2023-06-01T08:50:11;101065.03;;;26.90;41.46
13974;BME280;7060;43.770;4.008;2023-06-01T08:52:43;101063.31;;;26.84;42.34
13974;BME280;7060;43.770;4.008;2023-06-01T08:55:14;101064.16;;;26.73;42.04
13974;BME280;7060;43.770;4.008;2023-06-01T08:57:43;101063.56;;;26.71;42.10
13974;BME280;7060;43.770;4.008;2023-06-01T09:00:12;101064.38;;;26.83;42.98
13974;BME280;7060;43.770;4.008;2023-06-01T09:02:42;101062.28;;;26.90;42.24
13974;BME280;7060;43.770;4.008;2023-06-01T09:05:11;101060.81;;;26.83;41.36
13974;BME280;7060;43.770;4.008;2023-06-01T09:07:40;101063.69;;;26.76;42.26
13974;BME280;7060;43.770;4.008;2023-06-01T09:10:09;101071.44;;;26.79;42.20
13974;BME280;7060;43.770;4.008;2023-06-01T09:12:51;101023.09;;;26.61;41.23
13974;BME280;7060;43.770;4.008;2023-06-01T09:15:20;101059.06;;;26.93;41.15
13974;BME280;7060;43.770;4.008;2023-06-01T09:17:50;101064.06;;;26.96;40.99
13974;BME280;7060;43.770;4.008;2023-06-01T09:20:23;101059.25;;;27.04;41.21
13974;BME280;7060;43.770;4.008;2023-06-01T09:22:53;101057.09;;;27.06;40.42
13974;BME280;7060;43.770;4.008;2023-06-01T09:25:24;101050.53;;;27.07;40.82
13974;BME280;7060;43.770;4.008;2023-06-01T09:27:56;101063.28;;;27.13;41.62
13974;BME280;7060;43.770;4.008;2023-06-01T09:30:37;101043.03;;;27.02;39.71
13974;BME280;7060;43.770;4.008;2023-06-01T09:33:13;101050.00;;;27.21;39.61
13974;BME280;7060;43.770;4.008;2023-06-01T09:35:43;101055.31;;;27.28;39.88
13974;BME280;7060;43.770;4.008;2023-06-01T09:38:12;101061.75;;;27.34;40.09
13974;BME280;7060;43.770;4.008;2023-06-01T09:40:55;100974.09;;;26.82;38.07
13974;BME280;7060;43.770;4.008;2023-06-01T09:43:26;101057.91;;;27.35;39.01
13974;BME280;7060;43.770;4.008;2023-06-01T09:46:05;101049.94;;;27.33;37.59
13974;BME280;7060;43.770;4.008;2023-06-01T09:48:34;101056.75;;;27.30;36.96
13974;BME280;7060;43.770;4.008;2023-06-01T09:51:04;101052.25;;;27.24;36.53
13974;BME280;7060;43.770;4.008;2023-06-01T09:53:42;101010.50;;;26.94;36.99
13974;BME280;7060;43.770;4.008;2023-06-01T09:56:11;101050.78;;;27.05;36.32
13974;BME280;7060;43.770;4.008;2023-06-01T09:58:40;101044.59;;;26.98;38.13
13974;BME280;7060;43.770;4.008;2023-06-01T10:01:10;101054.16;;;26.95;39.51
13974;BME280;7060;43.770;4.008;2023-06-01T10:03:43;101043.09;;;26.90;39.81
13974;BME280;7060;43.770;4.008;2023-06-01T10:06:14;101045.38;;;27.10;38.82
13974;BME280;7060;43.770;4.008;2023-06-01T10:08:43;101038.44;;;27.36;37.27
13974;BME280;7060;43.770;4.008;2023-06-01T10:11:12;101030.03;;;27.59;36.75
13974;BME280;7060;43.770;4.008;2023-06-01T10:13:42;101027.25;;;27.76;38.06
13974;BME280;7060;43.770;4.008;2023-06-01T10:16:11;101040.25;;;27.98;36.79
13974;BME280;7060;43.770;4.008;2023-06-01T10:18:41;101032.00;;;28.19;37.49
13974;BME280;7060;43.770;4.008;2023-06-01T10:21:10;101036.78;;;28.29;36.41
13974;BME280;7060;43.770;4.008;2023-06-01T10:23:40;101035.94;;;28.45;35.49
13974;BME280;7060;43.770;4.008;2023-06-01T10:26:11;101039.84;;;28.49;35.01
13974;BME280;7060;43.770;4.008;2023-06-01T10:28:45;101034.94;;;28.56;35.80
13974;BME280;7060;43.770;4.008;2023-06-01T10:31:40;101037.66;;;28.51;35.04
13974;BME280;7060;43.770;4.008;2023-06-01T10:34:10;101032.19;;;28.56;36.06
13974;BME280;7060;43.770;4.008;2023-06-01T10:37:12;101032.25;;;28.40;36.43
13974;BME280;7060;43.770;4.008;2023-06-01T10:39:41;101032.84;;;28.42;36.59
13974;BME280;7060;43.770;4.008;2023-06-01T10:42:35;101030.00;;;28.37;36.80
13974;BME280;7060;43.770;4.008;2023-06-01T10:45:07;101030.16;;;28.25;36.65
13974;BME280;7060;43.770;4.008;2023-06-01T10:47:46;101026.91;;;28.50;36.74
13974;BME280;7060;43.770;4.008;2023-06-01T10:50:19;101023.75;;;28.63;36.84
13974;BME280;7060;43.770;4.008;2023-06-01T10:52:47;101021.25;;;28.61;36.84
13974;BME280;7060;43.770;4.008;2023-06-01T10:55:20;101017.28;;;28.74;35.95
13974;BME280;7060;43.770;4.008;2023-06-01T10:58:19;101011.00;;;28.79;36.02
13974;BME280;7060;43.770;4.008;2023-06-01T11:00:52;100998.91;;;28.80;35.53
13974;BME280;7060;43.770;4.008;2023-06-01T11:03:42;101002.44;;;28.75;35.62
13974;BME280;7060;43.770;4.008;2023-06-01T11:06:28;101003.03;;;28.82;36.45
13974;BME280;7060;43.770;4.008;2023-06-01T11:08:59;100998.41;;;28.88;36.31
13974;BME280;7060;43.770;4.008;2023-06-01T11:11:59;101007.97;;;28.80;35.36
13974;BME280;7060;43.770;4.008;2023-06-01T11:14:29;101003.31;;;28.54;35.91
13974;BME280;7060;43.770;4.008;2023-06-01T11:17:32;100995.25;;;28.25;37.38
13974;BME280;7060;43.770;4.008;2023-06-01T11:20:01;101000.97;;;28.02;37.62
13974;BME280;7060;43.770;4.008;2023-06-01T11:22:35;101008.44;;;27.85;36.86
13974;BME280;7060;43.770;4.008;2023-06-01T11:25:05;101007.19;;;27.92;36.80
13974;BME280;7060;43.770;4.008;2023-06-01T11:27:35;100997.88;;;28.15;36.45
13974;BME280;7060;43.770;4.008;2023-06-01T11:30:05;100997.59;;;28.39;35.89
13974;BME280;7060;43.770;4.008;2023-06-01T11:32:39;100998.66;;;28.59;36.51
13974;BME280;7060;43.770;4.008;2023-06-01T11:35:16;100993.09;;;28.76;35.02
13974;BME280;7060;43.770;4.008;2023-06-01T11:37:45;100991.81;;;28.89;34.59
13974;BME280;7060;43.770;4.008;2023-06-01T11:40:16;100992.25;;;29.03;35.42
13974;BME280;7060;43.770;4.008;2023-06-01T11:42:45;100982.97;;;29.09;34.10
13974;BME280;7060;43.770;4.008;2023-06-01T11:45:17;100977.78;;;29.17;34.19
13974;BME280;7060;43.770;4.008;2023-06-01T11:47:47;100983.72;;;29.36;35.27
13974;BME280;7060;43.770;4.008;2023-06-01T11:50:22;100975.47;;;29.41;34.31
13974;BME280;7060;43.770;4.008;2023-06-01T11:52:54;100973.88;;;29.50;34.83
13974;BME280;7060;43.770;4.008;2023-06-01T11:55:24;100968.22;;;29.67;35.00
13974;BME280;7060;43.770;4.008;2023-06-01T11:57:52;100965.78;;;29.76;34.17
13974;BME280;7060;43.770;4.008;2023-06-01T12:00:21;100967.78;;;29.85;34.21
13974;BME280;7060;43.770;4.008;2023-06-01T12:03:04;100969.69;;;29.80;32.24
13974;BME280;7060;43.770;4.008;2023-06-01T12:05:39;100967.72;;;29.75;32.76
13974;BME280;7060;43.770;4.008;2023-06-01T12:08:12;100966.81;;;29.64;33.11
13974;BME280;7060;43.770;4.008;2023-06-01T12:10:43;100966.06;;;29.74;35.36
13974;BME280;7060;43.770;4.008;2023-06-01T12:13:12;100964.09;;;29.70;33.24
13974;BME280;7060;43.770;4.008;2023-06-01T12:15:41;100959.94;;;29.62;33.97
13974;BME280;7060;43.770;4.008;2023-06-01T12:18:12;100955.69;;;29.49;32.64
13974;BME280;7060;43.770;4.008;2023-06-01T12:20:42;100960.03;;;29.40;32.23
13974;BME280;7060;43.770;4.008;2023-06-01T12:23:13;100952.56;;;29.30;33.61
13974;BME280;7060;43.770;4.008;2023-06-01T12:25:50;100952.81;;;29.29;33.45
13974;BME280;7060;43.770;4.008;2023-06-01T12:28:19;100939.66;;;29.41;33.99
13974;BME280;7060;43.770;4.008;2023-06-01T12:30:48;100949.19;;;29.60;33.81
13974;BME280;7060;43.770;4.008;2023-06-01T12:33:35;100938.75;;;29.62;32.51
13974;BME280;7060;43.770;4.008;2023-06-01T12:36:04;100938.19;;;29.66;33.98
13974;BME280;7060;43.770;4.008;2023-06-01T12:38:37;100929.41;;;29.74;33.14
13974;BME280;7060;43.770;4.008;2023-06-01T12:41:07;100930.00;;;29.81;33.64
13974;BME280;7060;43.770;4.008;2023-06-01T12:43:36;100926.38;;;29.75;32.62
13974;BME280;7060;43.770;4.008;2023-06-01T12:46:05;100920.09;;;29.85;33.82
13974;BME280;7060;43.770;4.008;2023-06-01T12:48:35;100915.69;;;29.84;32.62
13974;BME280;7060;43.770;4.008;2023-06-01T12:51:04;100908.47;;;29.73;32.55
13974;BME280;7060;43.770;4.008;2023-06-01T12:53:35;100912.25;;;29.56;32.05
13974;BME280;7060;43.770;4.008;2023-06-01T12:56:04;100911.66;;;29.54;33.41
13974;BME280;7060;43.770;4.008;2023-06-01T12:58:32;100904.03;;;29.61;32.59
13974;BME280;7060;43.770;4.008;2023-06-01T13:01:02;100905.84;;;29.51;31.75
13974;BME280;7060;43.770;4.008;2023-06-01T13:03:30;100894.84;;;29.51;33.15
13974;BME280;7060;43.770;4.008;2023-06-01T13:06:01;100902.28;;;29.55;33.60
13974;BME280;7060;43.770;4.008;2023-06-01T13:08:29;100896.84;;;29.60;33.28
13974;BME280;7060;43.770;4.008;2023-06-01T13:10:58;100889.38;;;29.56;33.11
13974;BME280;7060;43.770;4.008;2023-06-01T13:13:28;100898.50;;;29.67;32.80
13974;BME280;7060;43.770;4.008;2023-06-01T13:15:57;100889.41;;;29.66;31.91
13974;BME280;7060;43.770;4.008;2023-06-01T13:18:26;100891.91;;;29.62;31.04
13974;BME280;7060;43.770;4.008;2023-06-01T13:20:55;100884.63;;;29.51;31.38